• Join FlightAware (Why Join?)
  • Login
  • US Flag 
01:04PM EST


 

Airport Tracker/Info


-or-


 

Live Flight TrackerFlight Track Log ✈ ASQ6115 ✈ 03-Jun-2013 ✈ KMCI - KORD

Flight Track Log - Related Links

Times and Time Zones

All times are in EDT time to prevent confusion due to time zone crossing. See the ASQ6115 flight status page for this flight to view local times or setup timezone preferences in your user account.

Time Position Orientation Groundspeed Altitude Reporting Facility
EDT Latitude Longitude Course Direction KTS MPH feet Rate Location/Type
09:00AM 39.2833 -94.7333 41° Northeast 162 186 1,600  Level Kansas City TRACON
09:01AM 39.2528 -94.7328 179° South 172 198 3,200 1,800 Climbing Kansas City Center
09:02AM 39.1983 -94.6981 154° Southeast 256 295 4,900 2,040 Climbing Kansas City Center
09:03AM 39.4212 -94.5485 44° Northeast  Level FlightAware Approximate
09:03AM 39.2019 -94.6064 87° East 278 320 7,500  Level Kansas City Center
09:04AM 39.4771 -94.4834 41° Northeast  Level FlightAware Approximate
09:04AM 39.2731 -94.5453 34° Northeast 278 320 10,300  Level Kansas City Center
09:05AM 39.5335 -94.4189 41° Northeast  Level FlightAware Approximate
09:05AM 39.3414 -94.4883 33° Northeast 302 348 11,800  Level Kansas City Center
09:06AM 39.4278 -94.4136 34° Northeast 332 382 13,800 1,740 Climbing Kansas City Center
09:07AM 39.5014 -94.3397 38° Northeast 347 399 15,400 1,260 Climbing Kansas City Center
09:08AM 39.5764 -94.2628 38° Northeast 358 412 16,500 1,140 Climbing Kansas City Center
09:09AM 39.6703 -94.1700 37° Northeast 378 435 17,800 1,440 Climbing Kansas City Center
09:10AM 39.7508 -94.0892 38° Northeast 382 440 19,500 1,860 Climbing Kansas City Center
09:11AM 39.8439 -93.9942 38° Northeast 380 437 21,700 1,860 Climbing Kansas City Center
09:12AM 39.9022 -93.8811 56° Northeast 394 453 23,400 1,800 Climbing Kansas City Center
09:13AM 39.9386 -93.7481 70° East 393 452 25,400 1,800 Climbing Kansas City Center
09:14AM 39.9758 -93.6197 69° East 385 443 27,200 1,560 Climbing Kansas City Center
09:15AM 40.0100 -93.4889 71° East 384 442 28,700 1,560 Climbing Kansas City Center
09:16AM 40.0450 -93.3597 70° East 381 438 30,400 1,440 Climbing Kansas City Center
09:17AM 40.0789 -93.2317 71° East 378 435 31,700 1,080 Climbing Kansas City Center
09:18AM 40.1222 -93.0728 70° East 387 445 32,700 600 Climbing Kansas City Center
09:19AM 40.1600 -92.9336 70° East 405 466 33,000 120 Climbing Kansas City Center
09:20AM 40.1972 -92.7892 71° East 427 491 33,000  Level Kansas City Center
09:21AM 40.2467 -92.6083 70° East 460 529 33,000  Level Kansas City Center
09:22AM 40.2883 -92.4528 71° East 469 540 33,000  Level Kansas City Center
09:23AM 40.3311 -92.2775 72° East 476 548 33,000  Level Kansas City Center
09:24AM 40.3728 -92.1144 71° East 475 547 33,000  Level Kansas City Center
09:25AM 40.4139 -91.9539 71° East 472 543 33,000  Level Kansas City Center
09:26AM 40.4392 -91.8564 71° East 472 543 33,000  Level Chicago Center
09:26AM 40.4556 -91.7908 72° East 474 545 33,000  Level Kansas City Center
09:27AM 40.5056 -91.5931 72° East 480 552 33,000  Level Kansas City Center
09:28AM 40.5217 -91.5261 72° East 482 555 33,000  Level Chicago Center
09:29AM 40.5664 -91.3597 70° East 485 558 33,000  Level Chicago Center
09:29AM 40.6006 -91.2633 65° Northeast 486 559 33,000  Level Kansas City Center
09:30AM 40.6278 -91.1856 65° Northeast 486 559 33,000  Level Chicago Center
09:31AM 40.6839 -91.0219 66° East 489 563 33,000  Level Chicago Center
09:32AM 40.7397 -90.8564 66° East 491 565 33,000  Level Chicago Center
09:33AM 40.7961 -90.6914 66° East 493 567 33,000  Level Chicago Center
09:34AM 40.8636 -90.4950 66° East 485 558 33,000  Level Chicago Center
09:35AM 40.9197 -90.3256 66° East 501 577 33,000 -240 Level Chicago Center
09:36AM 40.9708 -90.1731 66° East 496 571 32,600 -1,620 Descending Chicago Center
09:37AM 41.0322 -89.9875 66° East 494 568 29,700 -2,700 Descending Chicago Center
09:38AM 41.0858 -89.8206 67° East 491 565 27,100 -2,520 Descending Chicago Center
09:39AM 41.1406 -89.6569 66° East 500 575 24,500 -2,040 Descending Chicago Center
09:40AM 41.1964 -89.4989 65° Northeast 497 572 22,900 -1,860 Descending Chicago Center
09:41AM 41.2539 -89.3542 62° Northeast 443 510 20,700 -2,340 Descending Chicago Center
09:42AM 41.3206 -89.1861 62° Northeast 416 479 18,100 -2,340 Descending Chicago Center
09:43AM 41.3731 -89.0536 62° Northeast 410 472 15,900 -2,280 Descending Chicago Center
09:44AM 41.4267 -88.9233 61° Northeast 405 466 13,500 -2,160 Descending Chicago Center
09:45AM 41.4769 -88.7947 62° Northeast 394 453 11,500 -1,260 Descending Chicago Center
09:46AM 41.5250 -88.6736 62° Northeast 371 427 11,000 -300 Descending Chicago Center
09:48AM 41.5753 -88.5511 61° Northeast 380 437 11,000 -120 Level Chicago Center
09:49AM 41.6386 -88.4178 58° Northeast 378 435 10,800 -780 Descending Chicago Center
09:50AM 41.6903 -88.3294 52° Northeast 305 351 9,500 -1,260 Descending Chicago Center
09:51AM 41.7400 -88.2436 52° Northeast 296 341 8,200 -1,200 Descending Chicago Center
09:52AM 41.7900 -88.1594 51° Northeast 298 343 7,100 -600 Descending Chicago Center
09:53AM 41.8361 -88.0775 53° Northeast 290 334 7,000  Descending Chicago Center
09:54AM 41.8833 -87.9833 56° Northeast 284 327 7,100  Climbing Chicago TRACON
09:55AM 41.8833 -87.8667 90° East 246 283 7,000 -60 Descending Chicago TRACON
09:56AM 41.8847 -87.7906 89° East 228 262 7,000 -300 Level Chicago Center
09:57AM 41.8833 -87.7122 91° East 216 249 6,500 -780 Descending Chicago Center
09:58AM 41.8842 -87.6347 89° East 212 244 5,400 -1,020 Descending Chicago Center
09:59AM 41.9025 -87.5772 67° East 204 235 4,400 -720 Descending Chicago Center
10:00AM 41.9433 -87.6069 332° Northwest 193 222 4,000 -300 Descending Chicago Center
10:01AM 41.9600 -87.6897 285° West 192 221 3,800 -600 Descending Chicago Center
10:02AM 41.9717 -87.7569 283° West 190 219 2,800 -1,020 Descending Chicago Center